Antilla — PJJI — position and weather

sailwx.info

Track history (hours):
 
Tides and Currents Weather Stations Pressure Air Temp Water Temp Dewpoint Dewpoint Depression Visibility Wind Speed Wind Dir Waves Ship Positions

Antilla

Last reported at 2016-Mar-14 09:08 UTC. Time now 2016-Aug-24 02:36 UTC.
Position N 39°18' W 009°48'.
Warning: this ship's position is months out of date.

Length 105 m; beam 16 m.

Type: Cargo ship. MMSI: 306511000.

Date/timePositionNaut miles runAvg speedWind from/ knotsBaromVisibWave heightAir tempDewpointWater temp
2016-Mar-14 09:08N 39°18' W 009°48'1113.0
2016-Mar-14 08:20N 39°07' W 009°49'1012.9
2016-Mar-14 07:33N 38°57' W 009°50'1413.2
2016-Mar-14 06:29N 38°43' W 009°51'1213.3
2016-Mar-14 05:33N 38°31' W 009°48'1412.9
2016-Mar-14 04:29N 38°18' W 009°44'3013.0
2016-Mar-14 02:09N 37°48' W 009°36'812.9
2016-Mar-14 01:31N 37°40' W 009°34'2512.6
2016-Mar-13 23:33N 37°16' W 009°26'3012.6
2016-Mar-13 21:10N 36°48' W 009°13'812.3
2016-Mar-13 20:31N 36°43' W 009°05'1212.9
2016-Mar-13 19:34N 36°40' W 008°51'  
2016-Mar-09 22:20N 36°33' E 014°07'810.1
2016-Mar-09 21:33N 36°31' E 014°16'10 9.9
2016-Mar-09 20:30N 36°27' E 014°28'  
Track history (hours):
 
Tides and Currents Weather Stations Pressure Air Temp Water Temp Dewpoint Dewpoint Depression Visibility Wind Speed Wind Dir Waves Ship Positions

Antilla

Last reported at 2016-Mar-14 09:08 UTC. Time now 2016-Aug-24 02:36 UTC.
Position N 39°18' W 009°48'.
Warning: this ship's position is months out of date.

Length 105 m; beam 16 m.

Type: Cargo ship. MMSI: 306511000.

Date/timePositionNaut miles runAvg speedWind from/ knotsBaromVisibWave heightAir tempDewpointWater temp
2016-Mar-14 09:08N 39°18' W 009°48'1113.0
2016-Mar-14 08:20N 39°07' W 009°49'1012.9
2016-Mar-14 07:33N 38°57' W 009°50'1413.2
2016-Mar-14 06:29N 38°43' W 009°51'1213.3
2016-Mar-14 05:33N 38°31' W 009°48'1412.9
2016-Mar-14 04:29N 38°18' W 009°44'3013.0
2016-Mar-14 02:09N 37°48' W 009°36'812.9
2016-Mar-14 01:31N 37°40' W 009°34'2512.6
2016-Mar-13 23:33N 37°16' W 009°26'3012.6
2016-Mar-13 21:10N 36°48' W 009°13'812.3
2016-Mar-13 20:31N 36°43' W 009°05'1212.9
2016-Mar-13 19:34N 36°40' W 008°51'  
2016-Mar-09 22:20N 36°33' E 014°07'810.1
2016-Mar-09 21:33N 36°31' E 014°16'10 9.9
2016-Mar-09 20:30N 36°27' E 014°28'  

Dump ship's entire track history